Flight Track Log - Related Links

Times and Time Zones

All times are in EDT time to prevent confusion due to time zone crossing. See the FFT933 flight status page for this flight to view local times or setup timezone preferences in your user account.

Time Position Orientation Groundspeed Altitude Reporting Facility
EDT Latitude Longitude Course Direction KTS MPH feet Rate Location/Type
Sun 07:41:06 PM 40.2833 -74.8000 294° West 148 170 700  Level Philadelphia TRACON
Sun 07:42:18 PM 40.3000 -74.8500 294° West 268 308 2,400 2,500 Climbing Philadelphia TRACON
Sun 07:43:18 PM 40.2833 -74.9333 255° West 272 313 6,200 2,421 Climbing Philadelphia TRACON
Sun 07:44:12 PM 40.2333 -75.0167 232° Southwest 272 313 7,000 421 Climbing Philadelphia TRACON
Sun 07:45:12 PM 40.2000 -75.1000 242° Southwest 278 320 7,000 1,100 Level Philadelphia TRACON
Sun 07:46:12 PM 40.1500 -75.1833 232° Southwest 286 329 9,200 984 Climbing Philadelphia TRACON
Sun 07:48:15 PM 40.0578 -75.3569 235° Southwest 295 339 10,000 262 Climbing New York Center
Sun 07:49:15 PM 39.9767 -75.3514 177° South 269 310 10,000  Level New York Center
Sun 07:50:15 PM 39.8939 -75.3381 173° South 281 323 10,000  Level New York Center
Sun 07:51:15 PM 39.8611 -75.4250 244° Southwest 232 267 10,000 -50 Level New York Center
Sun 07:52:15 PM 39.8547 -75.5328 266° West 252 290 9,900 50 Descending New York Center
Sun 07:53:15 PM 39.8458 -75.6511 264° West 303 349 10,100 1,400 Climbing New York Center
Sun 07:54:15 PM 39.8386 -75.7750 266° West 345 397 12,700 2,600 Climbing New York Center
Sun 07:55:15 PM 39.8267 -75.9014 263° West 358 412 15,300 1,950 Climbing New York Center
Sun 07:56:15 PM 39.8106 -76.0325 261° West 358 412 16,600 1,750 Climbing New York Center
Sun 07:57:15 PM 39.8089 -76.1650 269° West 369 425 18,800 1,450 Climbing New York Center
Sun 07:58:15 PM 39.8344 -76.2833 286° West 368 423 19,500 1,350 Climbing New York Center
Sun 07:59:15 PM 39.8622 -76.4044 287° West 373 429 21,500 1,900 Climbing New York Center
Sun 08:00:15 PM 39.8789 -76.5356 279° West 373 429 23,300 1,750 Climbing New York Center
Sun 08:01:15 PM 39.8247 -76.6583 240° Southwest 366 421 25,000 1,700 Climbing New York Center
Sun 08:02:15 PM 39.7619 -76.7853 237° Southwest 382 440 26,700 1,550 Climbing New York Center
Sun 08:03:15 PM 39.7011 -76.9150 239° Southwest 411 473 28,100 1,381 Climbing New York Center
Sun 08:04:08 PM 39.6425 -77.0414 239° Southwest 425 489 29,300 1,274 Climbing Washington Center
Sun 08:05:08 PM 39.5847 -77.1642 239° Southwest 449 517 30,500 1,322 Climbing Washington Center
Sun 08:06:06 PM 39.5222 -77.3025 240° Southwest 449 517 31,900 1,373 Climbing Washington Center
Sun 08:07:06 PM 39.4578 -77.4408 239° Southwest 454 522 33,200 1,289 Climbing Washington Center
Sun 08:08:07 PM 39.3747 -77.5594 228° Southwest 454 522 34,500 1,190 Climbing Washington Center
Sun 08:09:07 PM 39.2708 -77.6558 216° Southwest 449 517 35,600 744 Climbing Washington Center
Sun 08:10:08 PM 39.1753 -77.7631 221° Southwest 456 525 36,000 200 Climbing Washington Center
Sun 08:11:07 PM 39.0733 -77.8694 219° Southwest 469 540 36,000  Level Washington Center
Sun 08:12:07 PM 38.9603 -77.9942 221° Southwest 475 547 36,000  Level Washington Center
Sun 08:13:06 PM 38.8581 -78.1028 220° Southwest 480 552 36,000  Level Washington Center
Sun 08:14:06 PM 38.7556 -78.2139 220° Southwest 480 552 36,000  Level Washington Center
Sun 08:15:06 PM 38.6531 -78.3219 219° Southwest 485 558 36,000  Level Washington Center
Sun 08:16:07 PM 38.5483 -78.4322 219° Southwest 485 558 36,000  Level Washington Center
Sun 08:17:08 PM 38.4436 -78.5422 219° Southwest 490 564 36,000  Level Washington Center
Sun 08:18:08 PM 38.3408 -78.6492 219° Southwest 490 564 36,000  Level Washington Center
Sun 08:19:08 PM 38.2506 -78.7486 221° Southwest 490 564 36,000 -51 Level Washington Center
Sun 08:20:06 PM 38.1456 -78.8578 219° Southwest 485 558 35,900  Descending Washington Center
Sun 08:21:07 PM 38.0317 -78.9767 219° Southwest 491 565 36,000 50 Climbing Washington Center
Sun 08:22:07 PM 37.9264 -79.0853 219° Southwest 491 565 36,000  Level Washington Center
Sun 08:23:08 PM 37.8331 -79.2072 226° Southwest 491 565 36,000  Level Washington Center
Sun 08:24:08 PM 37.7525 -79.3189 228° Southwest 485 558 36,000  Level Washington Center
Sun 08:25:06 PM 37.6567 -79.4478 227° Southwest 478 550 36,000  Level Washington Center
Sun 08:26:07 PM 37.5781 -79.5567 228° Southwest 478 550 36,000 49 Level Washington Center
Sun 08:27:08 PM 37.4797 -79.6903 227° Southwest 478 550 36,100  Climbing Washington Center
Sun 08:28:57 PM 37.3231 -79.9025 227° Southwest 462 532 36,000 -36 Descending Atlanta Center
Sun 08:29:57 PM 37.2272 -80.0328 227° Southwest 462 532 36,000  Level Atlanta Center
Sun 08:30:57 PM 37.1394 -80.1492 227° Southwest 462 532 36,000  Level Atlanta Center
Sun 08:31:57 PM 37.0533 -80.2678 228° Southwest 462 532 36,000  Level Atlanta Center
Sun 08:32:57 PM 36.9653 -80.3836 226° Southwest 462 532 36,000  Level Atlanta Center
Sun 08:33:57 PM 36.8869 -80.4911 228° Southwest 462 532 36,000  Level Atlanta Center
Sun 08:34:57 PM 36.7986 -80.6064 226° Southwest 462 532 36,000  Level Atlanta Center
Sun 08:35:57 PM 36.7122 -80.7217 227° Southwest 457 526 36,000  Level Atlanta Center
Sun 08:37:00 PM 36.6342 -80.8238 226° Southwest  Level FlightAware Approximate
Sun 08:37:57 PM 36.5267 -80.9694 226° Southwest 463 533 36,000  Level Atlanta Center
Sun 08:38:57 PM 36.4358 -81.0867 226° Southwest 463 533 36,000  Level Atlanta Center
Sun 08:39:57 PM 36.3489 -81.2058 228° Southwest 463 533 36,000  Level Atlanta Center
Sun 08:40:57 PM 36.2617 -81.3194 226° Southwest 463 533 36,000  Level Atlanta Center
Sun 08:41:57 PM 36.1706 -81.4383 227° Southwest 463 533 36,000  Level Atlanta Center
Sun 08:42:57 PM 36.0811 -81.5569 227° Southwest 463 533 36,000  Level Atlanta Center
Sun 08:43:57 PM 35.9917 -81.6725 226° Southwest 463 533 36,000  Level Atlanta Center
Sun 08:44:57 PM 35.9022 -81.7906 227° Southwest 469 540 36,000  Level Atlanta Center
Sun 08:45:57 PM 35.8103 -81.9058 225° Southwest 469 540 36,000 -300 Level Atlanta Center
Sun 08:46:57 PM 35.7183 -82.0233 226° Southwest 467 537 35,400 -500 Descending Atlanta Center
Sun 08:47:57 PM 35.6283 -82.1378 226° Southwest 467 537 35,000 -200 Descending Atlanta Center
Sun 08:48:57 PM 35.5322 -82.2525 224° Southwest 467 537 35,000 -200 Level Atlanta Center
Sun 08:49:57 PM 35.4356 -82.3642 223° Southwest 477 549 34,600 -700 Descending Atlanta Center
Sun 08:50:57 PM 35.3389 -82.4731 223° Southwest 482 555 33,600 -1,000 Descending Atlanta Center
Sun 08:51:57 PM 35.2444 -82.5817 223° Southwest 477 549 32,600 -1,000 Descending Atlanta Center
Sun 08:52:57 PM 35.1494 -82.6797 220° Southwest 466 536 31,600 -1,000 Descending Atlanta Center
Sun 08:53:57 PM 35.0547 -82.7878 223° Southwest 466 536 30,600 -950 Descending Atlanta Center
Sun 08:54:57 PM 34.9575 -82.8933 222° Southwest 466 536 29,700 -950 Descending Atlanta Center
Sun 08:55:57 PM 34.8564 -82.9958 220° Southwest 466 536 28,700 -1,200 Descending Atlanta Center
Sun 08:56:57 PM 34.7653 -83.1058 225° Southwest 467 537 27,300 -2,000 Descending Atlanta Center
Sun 08:57:57 PM 34.6681 -83.2103 221° Southwest 467 537 24,700 -2,500 Descending Atlanta Center
Sun 08:58:57 PM 34.5747 -83.3122 222° Southwest 455 524 22,300 -2,200 Descending Atlanta Center
Sun 08:59:57 PM 34.4958 -83.3986 222° Southwest 449 517 20,300 -2,100 Descending Atlanta Center
Sun 09:00:57 PM 34.4067 -83.4975 222° Southwest 441 507 18,100 -2,100 Descending Atlanta Center
Sun 09:01:57 PM 34.3236 -83.5861 221° Southwest 424 488 16,100 -2,000 Descending Atlanta Center
Sun 09:02:57 PM 34.2425 -83.6769 223° Southwest 409 471 14,100 -1,650 Descending Atlanta Center
Sun 09:03:57 PM 34.1633 -83.7628 222° Southwest 394 453 12,800 -950 Descending Atlanta Center
Sun 09:04:57 PM 34.0967 -83.8331 221° Southwest 351 404 12,200 -638 Descending Atlanta Center
Sun 09:05:31 PM 34.0500 -83.8833 222° Southwest 314 361 11,800 -894 Descending Atlanta TRACON
Sun 09:06:31 PM 33.9833 -83.9500 220° Southwest 309 356 10,800 -1,000 Descending Atlanta TRACON
Sun 09:07:25 PM 33.9333 -84.0167 228° Southwest 307 353 9,900 -1,000 Descending Atlanta TRACON
Sun 09:08:25 PM 33.8667 -84.0667 212° Southwest 307 353 8,900 -1,239 Descending Atlanta TRACON
Sun 09:08:57 PM 33.8233 -84.0814 196° South 294 338 8,000 -1,630 Descending Atlanta Center
Sun 09:09:57 PM 33.7419 -84.0914 186° South 299 344 6,400 -1,600 Descending Atlanta Center
Sun 09:10:57 PM 33.6794 -84.1411 214° Southwest 275 316 4,800 -1,200 Descending Atlanta Center
Sun 09:11:57 PM 33.6500 -84.2186 245° Southwest 241 277 4,000 -900 Descending Atlanta Center
Sun 09:12:57 PM 33.6478 -84.2833 268° West 228 262 3,000 -932 Descending Atlanta Center
Sun 09:14:25 PM 33.6500 -84.3667 272° West 141 162 1,700 -886 Descending Atlanta TRACON
Sun 09:16:00 PM 33.6367 -84.4279 270° West  Level Estimated

Login

Don't have an account? Register now (free) for customized features, flight alerts, and more!